sensor_id;sensor_type;location;lat;lon;timestamp;temperature;humidity
21823;DHT22;11074;48.596;9.238;2023-06-14T00:00:52;17.20;97.90
21823;DHT22;11074;48.596;9.238;2023-06-14T00:03:19;17.40;97.80
21823;DHT22;11074;48.596;9.238;2023-06-14T00:05:45;17.40;97.80
21823;DHT22;11074;48.596;9.238;2023-06-14T00:08:12;17.60;99.90
21823;DHT22;11074;48.596;9.238;2023-06-14T00:10:39;17.80;99.40
21823;DHT22;11074;48.596;9.238;2023-06-14T00:13:09;17.90;99.90
21823;DHT22;11074;48.596;9.238;2023-06-14T00:15:35;17.90;99.40
21823;DHT22;11074;48.596;9.238;2023-06-14T00:18:02;17.90;98.30
21823;DHT22;11074;48.596;9.238;2023-06-14T00:20:29;17.70;97.60
21823;DHT22;11074;48.596;9.238;2023-06-14T00:23:00;17.60;98.00
21823;DHT22;11074;48.596;9.238;2023-06-14T00:25:26;17.40;97.90
21823;DHT22;11074;48.596;9.238;2023-06-14T00:27:56;17.30;99.70
21823;DHT22;11074;48.596;9.238;2023-06-14T00:30:23;17.40;99.10
21823;DHT22;11074;48.596;9.238;2023-06-14T00:32:49;17.50;98.00
21823;DHT22;11074;48.596;9.238;2023-06-14T00:35:15;17.30;98.00
21823;DHT22;11074;48.596;9.238;2023-06-14T00:37:41;17.20;98.30
21823;DHT22;11074;48.596;9.238;2023-06-14T00:40:07;16.90;98.20
21823;DHT22;11074;48.596;9.238;2023-06-14T00:42:33;16.90;98.50
21823;DHT22;11074;48.596;9.238;2023-06-14T00:45:00;17.00;99.00
21823;DHT22;11074;48.596;9.238;2023-06-14T00:47:26;16.90;98.50
21823;DHT22;11074;48.596;9.238;2023-06-14T00:49:53;17.10;99.80
21823;DHT22;11074;48.596;9.238;2023-06-14T00:52:20;17.10;98.50
21823;DHT22;11074;48.596;9.238;2023-06-14T00:54:46;17.10;99.90
21823;DHT22;11074;48.596;9.238;2023-06-14T00:57:12;17.20;98.50
21823;DHT22;11074;48.596;9.238;2023-06-14T00:59:43;17.10;99.20
21823;DHT22;11074;48.596;9.238;2023-06-14T01:02:10;17.20;99.90
21823;DHT22;11074;48.596;9.238;2023-06-14T01:04:37;17.40;99.90
21823;DHT22;11074;48.596;9.238;2023-06-14T01:07:21;17.30;99.90
21823;DHT22;11074;48.596;9.238;2023-06-14T01:13:12;16.90;99.70
21823;DHT22;11074;48.596;9.238;2023-06-14T01:15:45;16.50;99.60
21823;DHT22;11074;48.596;9.238;2023-06-14T01:18:12;16.30;99.90
21823;DHT22;11074;48.596;9.238;2023-06-14T01:20:45;16.50;99.90
21823;DHT22;11074;48.596;9.238;2023-06-14T01:23:19;16.40;99.90
21823;DHT22;11074;48.596;9.238;2023-06-14T01:25:47;16.40;99.90
21823;DHT22;11074;48.596;9.238;2023-06-14T01:28:18;16.50;99.90
21823;DHT22;11074;48.596;9.238;2023-06-14T01:30:49;16.70;99.90
21823;DHT22;11074;48.596;9.238;2023-06-14T01:33:22;16.90;99.90
21823;DHT22;11074;48.596;9.238;2023-06-14T01:35:52;17.10;99.90
21823;DHT22;11074;48.596;9.238;2023-06-14T01:38:22;17.00;99.90
21823;DHT22;11074;48.596;9.238;2023-06-14T01:40:52;17.10;99.90
21823;DHT22;11074;48.596;9.238;2023-06-14T01:43:21;17.20;99.90
21823;DHT22;11074;48.596;9.238;2023-06-14T01:45:48;17.30;99.90
21823;DHT22;11074;48.596;9.238;2023-06-14T01:48:16;17.00;99.90
21823;DHT22;11074;48.596;9.238;2023-06-14T01:50:43;16.80;99.90
21823;DHT22;11074;48.596;9.238;2023-06-14T01:53:09;16.70;99.90
21823;DHT22;11074;48.596;9.238;2023-06-14T01:55:35;16.40;99.90
21823;DHT22;11074;48.596;9.238;2023-06-14T01:58:04;16.40;99.90
21823;DHT22;11074;48.596;9.238;2023-06-14T02:00:30;16.60;99.90
21823;DHT22;11074;48.596;9.238;2023-06-14T02:02:56;16.70;99.90
21823;DHT22;11074;48.596;9.238;2023-06-14T02:05:24;16.70;99.90
21823;DHT22;11074;48.596;9.238;2023-06-14T02:07:49;16.50;99.90
21823;DHT22;11074;48.596;9.238;2023-06-14T02:10:16;16.30;99.90
21823;DHT22;11074;48.596;9.238;2023-06-14T02:12:43;16.00;99.90
21823;DHT22;11074;48.596;9.238;2023-06-14T02:15:09;15.90;99.90
21823;DHT22;11074;48.596;9.238;2023-06-14T02:17:45;16.00;99.90
21823;DHT22;11074;48.596;9.238;2023-06-14T02:20:12;16.20;99.90
21823;DHT22;11074;48.596;9.238;2023-06-14T02:22:38;16.50;99.90
21823;DHT22;11074;48.596;9.238;2023-06-14T02:25:05;16.50;99.90
21823;DHT22;11074;48.596;9.238;2023-06-14T02:27:32;16.60;99.90
21823;DHT22;11074;48.596;9.238;2023-06-14T02:29:57;16.60;99.90
21823;DHT22;11074;48.596;9.238;2023-06-14T02:32:23;16.30;99.90
21823;DHT22;11074;48.596;9.238;2023-06-14T02:34:48;16.30;99.90
21823;DHT22;11074;48.596;9.238;2023-06-14T02:37:15;16.40;99.90
21823;DHT22;11074;48.596;9.238;2023-06-14T02:39:41;16.30;99.90
21823;DHT22;11074;48.596;9.238;2023-06-14T02:42:07;16.00;99.90
21823;DHT22;11074;48.596;9.238;2023-06-14T02:44:33;16.00;99.90
21823;DHT22;11074;48.596;9.238;2023-06-14T02:46:58;15.90;99.90
21823;DHT22;11074;48.596;9.238;2023-06-14T02:49:26;15.70;99.90
21823;DHT22;11074;48.596;9.238;2023-06-14T02:51:51;15.70;99.90
21823;DHT22;11074;48.596;9.238;2023-06-14T02:54:17;15.80;99.90
21823;DHT22;11074;48.596;9.238;2023-06-14T02:56:43;15.60;99.90
21823;DHT22;11074;48.596;9.238;2023-06-14T02:59:09;15.40;99.90
21823;DHT22;11074;48.596;9.238;2023-06-14T03:01:35;15.20;99.90
21823;DHT22;11074;48.596;9.238;2023-06-14T03:04:04;15.10;99.90
21823;DHT22;11074;48.596;9.238;2023-06-14T03:06:29;15.00;99.90
21823;DHT22;11074;48.596;9.238;2023-06-14T03:08:56;14.80;99.90
21823;DHT22;11074;48.596;9.238;2023-06-14T03:11:25;14.70;99.90
21823;DHT22;11074;48.596;9.238;2023-06-14T03:13:53;14.80;99.90
21823;DHT22;11074;48.596;9.238;2023-06-14T03:16:19;14.80;99.90
21823;DHT22;11074;48.596;9.238;2023-06-14T03:18:45;14.80;99.90
21823;DHT22;11074;48.596;9.238;2023-06-14T03:21:11;14.50;99.90
21823;DHT22;11074;48.596;9.238;2023-06-14T03:23:37;14.40;99.90
21823;DHT22;11074;48.596;9.238;2023-06-14T03:26:02;14.40;99.90
21823;DHT22;11074;48.596;9.238;2023-06-14T03:28:28;14.50;99.90
21823;DHT22;11074;48.596;9.238;2023-06-14T03:30:54;14.60;99.90
21823;DHT22;11074;48.596;9.238;2023-06-14T03:33:19;14.60;99.90
21823;DHT22;11074;48.596;9.238;2023-06-14T03:35:46;14.70;99.90
21823;DHT22;11074;48.596;9.238;2023-06-14T03:38:12;14.80;99.90
21823;DHT22;11074;48.596;9.238;2023-06-14T03:40:37;14.90;99.90
21823;DHT22;11074;48.596;9.238;2023-06-14T03:43:03;15.00;99.90
21823;DHT22;11074;48.596;9.238;2023-06-14T03:45:29;15.30;99.90
21823;DHT22;11074;48.596;9.238;2023-06-14T03:47:54;15.40;99.90
21823;DHT22;11074;48.596;9.238;2023-06-14T03:50:21;15.60;99.90
21823;DHT22;11074;48.596;9.238;2023-06-14T03:52:48;15.60;99.90
21823;DHT22;11074;48.596;9.238;2023-06-14T03:55:14;15.40;99.90
21823;DHT22;11074;48.596;9.238;2023-06-14T03:57:41;15.30;99.90
21823;DHT22;11074;48.596;9.238;2023-06-14T04:00:08;15.10;99.90
21823;DHT22;11074;48.596;9.238;2023-06-14T04:02:35;14.80;99.90
21823;DHT22;11074;48.596;9.238;2023-06-14T04:05:02;15.00;99.90
21823;DHT22;11074;48.596;9.238;2023-06-14T04:07:28;14.90;99.90
21823;DHT22;11074;48.596;9.238;2023-06-14T04:09:55;14.80;99.90
21823;DHT22;11074;48.596;9.238;2023-06-14T04:12:21;14.80;99.90
21823;DHT22;11074;48.596;9.238;2023-06-14T04:14:46;14.70;99.90
21823;DHT22;11074;48.596;9.238;2023-06-14T04:17:12;14.60;99.90
21823;DHT22;11074;48.596;9.238;2023-06-14T04:19:38;14.70;99.90
21823;DHT22;11074;48.596;9.238;2023-06-14T04:22:04;14.90;99.90
21823;DHT22;11074;48.596;9.238;2023-06-14T04:24:30;15.20;99.90
21823;DHT22;11074;48.596;9.238;2023-06-14T04:26:58;15.40;99.90
21823;DHT22;11074;48.596;9.238;2023-06-14T04:29:25;15.40;99.90
21823;DHT22;11074;48.596;9.238;2023-06-14T04:31:54;15.50;99.90
21823;DHT22;11074;48.596;9.238;2023-06-14T04:34:20;15.40;99.90
21823;DHT22;11074;48.596;9.238;2023-06-14T04:36:47;15.40;99.90
21823;DHT22;11074;48.596;9.238;2023-06-14T04:39:19;15.00;99.90
21823;DHT22;11074;48.596;9.238;2023-06-14T04:41:51;14.70;99.90
21823;DHT22;11074;48.596;9.238;2023-06-14T04:44:18;14.70;99.90
21823;DHT22;11074;48.596;9.238;2023-06-14T04:46:45;14.80;99.90
21823;DHT22;11074;48.596;9.238;2023-06-14T04:49:14;14.90;99.90
21823;DHT22;11074;48.596;9.238;2023-06-14T04:51:44;15.10;99.90
21823;DHT22;11074;48.596;9.238;2023-06-14T04:54:11;15.00;99.90
21823;DHT22;11074;48.596;9.238;2023-06-14T04:56:41;15.10;99.90
21823;DHT22;11074;48.596;9.238;2023-06-14T04:59:11;15.20;99.90
21823;DHT22;11074;48.596;9.238;2023-06-14T05:01:38;15.10;99.90
21823;DHT22;11074;48.596;9.238;2023-06-14T05:04:03;15.30;99.90
21823;DHT22;11074;48.596;9.238;2023-06-14T05:06:29;15.30;99.90
21823;DHT22;11074;48.596;9.238;2023-06-14T05:08:55;15.20;99.90
21823;DHT22;11074;48.596;9.238;2023-06-14T05:11:21;15.40;99.90
21823;DHT22;11074;48.596;9.238;2023-06-14T05:13:49;15.50;99.90
21823;DHT22;11074;48.596;9.238;2023-06-14T05:16:16;15.70;99.90
21823;DHT22;11074;48.596;9.238;2023-06-14T05:18:44;15.80;99.90
21823;DHT22;11074;48.596;9.238;2023-06-14T05:21:12;15.90;99.90
21823;DHT22;11074;48.596;9.238;2023-06-14T05:23:38;16.00;99.90
21823;DHT22;11074;48.596;9.238;2023-06-14T05:26:04;16.10;99.90
21823;DHT22;11074;48.596;9.238;2023-06-14T05:28:30;16.20;99.90
21823;DHT22;11074;48.596;9.238;2023-06-14T05:30:56;16.30;99.90
21823;DHT22;11074;48.596;9.238;2023-06-14T05:33:23;16.30;99.90
21823;DHT22;11074;48.596;9.238;2023-06-14T05:35:49;16.40;99.90
21823;DHT22;11074;48.596;9.238;2023-06-14T05:38:14;16.40;99.90
21823;DHT22;11074;48.596;9.238;2023-06-14T05:40:40;16.50;99.90
21823;DHT22;11074;48.596;9.238;2023-06-14T05:43:06;16.50;99.90
21823;DHT22;11074;48.596;9.238;2023-06-14T05:45:31;16.50;99.90
21823;DHT22;11074;48.596;9.238;2023-06-14T05:47:57;16.60;99.90
21823;DHT22;11074;48.596;9.238;2023-06-14T05:50:23;16.60;99.90
21823;DHT22;11074;48.596;9.238;2023-06-14T05:52:48;16.60;99.90
21823;DHT22;11074;48.596;9.238;2023-06-14T05:55:16;16.70;99.90
21823;DHT22;11074;48.596;9.238;2023-06-14T05:57:42;16.70;99.90
21823;DHT22;11074;48.596;9.238;2023-06-14T06:00:08;16.70;99.90
21823;DHT22;11074;48.596;9.238;2023-06-14T06:02:36;16.80;99.90
21823;DHT22;11074;48.596;9.238;2023-06-14T06:05:02;16.80;99.90
21823;DHT22;11074;48.596;9.238;2023-06-14T06:07:28;16.80;99.90
21823;DHT22;11074;48.596;9.238;2023-06-14T06:09:54;16.60;99.90
21823;DHT22;11074;48.596;9.238;2023-06-14T06:12:19;16.60;99.90
21823;DHT22;11074;48.596;9.238;2023-06-14T06:14:45;16.60;99.90
21823;DHT22;11074;48.596;9.238;2023-06-14T06:17:11;16.60;99.90
21823;DHT22;11074;48.596;9.238;2023-06-14T06:19:36;16.50;99.90
21823;DHT22;11074;48.596;9.238;2023-06-14T06:22:02;16.50;99.90
21823;DHT22;11074;48.596;9.238;2023-06-14T06:24:31;16.50;99.90
21823;DHT22;11074;48.596;9.238;2023-06-14T06:26:57;16.50;99.90
21823;DHT22;11074;48.596;9.238;2023-06-14T06:29:23;16.50;99.90
21823;DHT22;11074;48.596;9.238;2023-06-14T06:31:48;16.60;99.90
21823;DHT22;11074;48.596;9.238;2023-06-14T06:34:14;16.60;99.90
21823;DHT22;11074;48.596;9.238;2023-06-14T06:36:40;16.60;99.90
21823;DHT22;11074;48.596;9.238;2023-06-14T06:39:06;16.70;99.90
21823;DHT22;11074;48.596;9.238;2023-06-14T06:41:36;16.70;99.90
21823;DHT22;11074;48.596;9.238;2023-06-14T06:44:05;16.60;99.90
21823;DHT22;11074;48.596;9.238;2023-06-14T06:46:32;16.70;99.90
21823;DHT22;11074;48.596;9.238;2023-06-14T06:48:59;16.70;99.90
21823;DHT22;11074;48.596;9.238;2023-06-14T06:51:25;16.70;99.90
21823;DHT22;11074;48.596;9.238;2023-06-14T06:53:54;16.70;99.90
21823;DHT22;11074;48.596;9.238;2023-06-14T06:56:21;16.80;99.90
21823;DHT22;11074;48.596;9.238;2023-06-14T06:58:49;16.90;99.90
21823;DHT22;11074;48.596;9.238;2023-06-14T07:01:15;17.00;99.90
21823;DHT22;11074;48.596;9.238;2023-06-14T07:03:42;17.10;99.90
21823;DHT22;11074;48.596;9.238;2023-06-14T07:06:08;17.10;99.90
21823;DHT22;11074;48.596;9.238;2023-06-14T07:08:34;17.20;99.90
21823;DHT22;11074;48.596;9.238;2023-06-14T07:11:01;17.20;99.90
21823;DHT22;11074;48.596;9.238;2023-06-14T07:13:27;17.30;99.90
21823;DHT22;11074;48.596;9.238;2023-06-14T07:15:58;17.40;99.90
21823;DHT22;11074;48.596;9.238;2023-06-14T07:18:28;17.40;99.90
21823;DHT22;11074;48.596;9.238;2023-06-14T07:20:54;17.50;99.90
21823;DHT22;11074;48.596;9.238;2023-06-14T07:23:20;17.60;99.90
21823;DHT22;11074;48.596;9.238;2023-06-14T07:25:46;17.60;99.90
21823;DHT22;11074;48.596;9.238;2023-06-14T07:28:12;17.70;99.90
21823;DHT22;11074;48.596;9.238;2023-06-14T07:30:37;17.80;99.90
21823;DHT22;11074;48.596;9.238;2023-06-14T07:33:03;17.90;99.90
21823;DHT22;11074;48.596;9.238;2023-06-14T07:35:29;17.90;99.90
21823;DHT22;11074;48.596;9.238;2023-06-14T07:37:54;18.00;99.90
21823;DHT22;11074;48.596;9.238;2023-06-14T07:40:20;18.00;99.90
21823;DHT22;11074;48.596;9.238;2023-06-14T07:42:46;18.10;99.90
21823;DHT22;11074;48.596;9.238;2023-06-14T07:45:13;18.20;99.90
21823;DHT22;11074;48.596;9.238;2023-06-14T07:47:39;18.20;99.90
21823;DHT22;11074;48.596;9.238;2023-06-14T07:50:05;18.20;99.90
21823;DHT22;11074;48.596;9.238;2023-06-14T07:52:31;18.30;99.90
21823;DHT22;11074;48.596;9.238;2023-06-14T07:54:57;18.40;99.90
21823;DHT22;11074;48.596;9.238;2023-06-14T07:57:23;18.50;99.90
21823;DHT22;11074;48.596;9.238;2023-06-14T07:59:49;18.60;99.90
21823;DHT22;11074;48.596;9.238;2023-06-14T08:02:15;18.60;99.90
21823;DHT22;11074;48.596;9.238;2023-06-14T08:04:41;18.70;99.90
21823;DHT22;11074;48.596;9.238;2023-06-14T08:07:07;18.80;99.70
21823;DHT22;11074;48.596;9.238;2023-06-14T08:09:33;18.90;99.90
21823;DHT22;11074;48.596;9.238;2023-06-14T08:12:00;18.90;99.90
21823;DHT22;11074;48.596;9.238;2023-06-14T08:14:26;19.00;99.90
21823;DHT22;11074;48.596;9.238;2023-06-14T08:16:51;19.10;99.20
21823;DHT22;11074;48.596;9.238;2023-06-14T08:19:17;19.10;99.20
21823;DHT22;11074;48.596;9.238;2023-06-14T08:21:43;19.20;98.90
21823;DHT22;11074;48.596;9.238;2023-06-14T08:24:10;19.30;99.80
21823;DHT22;11074;48.596;9.238;2023-06-14T08:26:38;19.40;99.90
21823;DHT22;11074;48.596;9.238;2023-06-14T08:29:04;19.40;99.20
21823;DHT22;11074;48.596;9.238;2023-06-14T08:31:32;19.40;99.00
21823;DHT22;11074;48.596;9.238;2023-06-14T08:33:58;19.50;99.40
21823;DHT22;11074;48.596;9.238;2023-06-14T08:36:24;19.60;98.80
21823;DHT22;11074;48.596;9.238;2023-06-14T08:38:50;19.60;99.20
21823;DHT22;11074;48.596;9.238;2023-06-14T08:41:21;19.70;99.70
21823;DHT22;11074;48.596;9.238;2023-06-14T08:43:48;19.70;99.90
21823;DHT22;11074;48.596;9.238;2023-06-14T08:46:17;19.80;99.90
21823;DHT22;11074;48.596;9.238;2023-06-14T08:48:48;19.80;99.90
21823;DHT22;11074;48.596;9.238;2023-06-14T08:51:17;19.90;98.80
21823;DHT22;11074;48.596;9.238;2023-06-14T08:53:44;20.00;98.00
21823;DHT22;11074;48.596;9.238;2023-06-14T08:56:11;20.10;97.60
21823;DHT22;11074;48.596;9.238;2023-06-14T08:58:42;20.20;97.70
21823;DHT22;11074;48.596;9.238;2023-06-14T09:01:11;20.20;97.60
21823;DHT22;11074;48.596;9.238;2023-06-14T09:03:42;20.30;98.50
21823;DHT22;11074;48.596;9.238;2023-06-14T09:06:08;20.30;97.40
21823;DHT22;11074;48.596;9.238;2023-06-14T09:08:43;20.30;98.00
21823;DHT22;11074;48.596;9.238;2023-06-14T09:11:14;20.30;97.90
21823;DHT22;11074;48.596;9.238;2023-06-14T09:13:41;20.40;98.40
21823;DHT22;11074;48.596;9.238;2023-06-14T09:16:08;20.40;98.30
21823;DHT22;11074;48.596;9.238;2023-06-14T09:18:52;20.50;99.20
21823;DHT22;11074;48.596;9.238;2023-06-14T09:21:19;20.60;97.90
21823;DHT22;11074;48.596;9.238;2023-06-14T09:23:47;20.60;97.60
21823;DHT22;11074;48.596;9.238;2023-06-14T09:26:15;20.60;97.60
21823;DHT22;11074;48.596;9.238;2023-06-14T09:28:49;20.70;97.60
21823;DHT22;11074;48.596;9.238;2023-06-14T09:31:20;20.70;98.30
21823;DHT22;11074;48.596;9.238;2023-06-14T09:33:47;20.80;97.30
21823;DHT22;11074;48.596;9.238;2023-06-14T09:36:24;20.80;96.40
21823;DHT22;11074;48.596;9.238;2023-06-14T09:38:59;20.90;95.30
21823;DHT22;11074;48.596;9.238;2023-06-14T09:41:35;20.90;95.60
21823;DHT22;11074;48.596;9.238;2023-06-14T09:44:04;21.00;96.10
21823;DHT22;11074;48.596;9.238;2023-06-14T09:46:32;21.10;95.90
21823;DHT22;11074;48.596;9.238;2023-06-14T09:48:59;21.10;95.70
21823;DHT22;11074;48.596;9.238;2023-06-14T09:51:26;21.30;96.00
21823;DHT22;11074;48.596;9.238;2023-06-14T09:53:58;21.40;96.50
21823;DHT22;11074;48.596;9.238;2023-06-14T09:56:41;21.50;96.50
21823;DHT22;11074;48.596;9.238;2023-06-14T09:59:12;21.70;95.40
21823;DHT22;11074;48.596;9.238;2023-06-14T10:01:42;21.70;95.10
21823;DHT22;11074;48.596;9.238;2023-06-14T10:04:10;21.80;94.20
21823;DHT22;11074;48.596;9.238;2023-06-14T10:06:39;22.00;93.90
21823;DHT22;11074;48.596;9.238;2023-06-14T10:09:08;22.00;94.10
21823;DHT22;11074;48.596;9.238;2023-06-14T10:11:35;22.00;92.20
21823;DHT22;11074;48.596;9.238;2023-06-14T10:14:04;21.90;92.40
21823;DHT22;11074;48.596;9.238;2023-06-14T10:19:18;22.10;91.70
21823;DHT22;11074;48.596;9.238;2023-06-14T10:21:58;22.20;88.90
21823;DHT22;11074;48.596;9.238;2023-06-14T10:24:33;22.20;90.00
21823;DHT22;11074;48.596;9.238;2023-06-14T10:27:08;22.40;91.90
21823;DHT22;11074;48.596;9.238;2023-06-14T10:32:27;22.70;92.60
21823;DHT22;11074;48.596;9.238;2023-06-14T10:34:59;22.80;94.70
21823;DHT22;11074;48.596;9.238;2023-06-14T10:37:34;23.00;90.90
21823;DHT22;11074;48.596;9.238;2023-06-14T10:40:01;23.20;92.20
21823;DHT22;11074;48.596;9.238;2023-06-14T10:42:31;23.20;95.40
21823;DHT22;11074;48.596;9.238;2023-06-14T10:44:58;23.00;94.40
21823;DHT22;11074;48.596;9.238;2023-06-14T10:47:31;22.90;94.00
21823;DHT22;11074;48.596;9.238;2023-06-14T10:50:08;22.70;91.20
21823;DHT22;11074;48.596;9.238;2023-06-14T10:52:39;22.60;91.00
21823;DHT22;11074;48.596;9.238;2023-06-14T10:55:11;22.80;92.00
21823;DHT22;11074;48.596;9.238;2023-06-14T10:57:51;22.90;91.00
21823;DHT22;11074;48.596;9.238;2023-06-14T11:00:27;22.70;90.80
21823;DHT22;11074;48.596;9.238;2023-06-14T11:03:30;22.60;92.40
21823;DHT22;11074;48.596;9.238;2023-06-14T11:06:15;22.70;91.70
21823;DHT22;11074;48.596;9.238;2023-06-14T11:12:03;22.60;90.50
21823;DHT22;11074;48.596;9.238;2023-06-14T11:14:33;23.00;94.40
21823;DHT22;11074;48.596;9.238;2023-06-14T11:16:59;23.30;94.90
21823;DHT22;11074;48.596;9.238;2023-06-14T11:19:24;23.70;92.10
21823;DHT22;11074;48.596;9.238;2023-06-14T11:21:52;24.00;92.10
21823;DHT22;11074;48.596;9.238;2023-06-14T11:24:17;24.10;87.70
21823;DHT22;11074;48.596;9.238;2023-06-14T11:26:43;24.20;90.10
21823;DHT22;11074;48.596;9.238;2023-06-14T11:29:09;24.10;93.10
21823;DHT22;11074;48.596;9.238;2023-06-14T11:31:35;23.90;90.00
21823;DHT22;11074;48.596;9.238;2023-06-14T11:34:01;24.30;91.80
21823;DHT22;11074;48.596;9.238;2023-06-14T11:36:27;24.80;89.30
21823;DHT22;11074;48.596;9.238;2023-06-14T11:39:03;24.80;89.00
21823;DHT22;11074;48.596;9.238;2023-06-14T11:41:38;25.10;90.20
21823;DHT22;11074;48.596;9.238;2023-06-14T11:44:07;24.90;87.10
21823;DHT22;11074;48.596;9.238;2023-06-14T11:46:33;24.50;91.80
21823;DHT22;11074;48.596;9.238;2023-06-14T11:48:59;24.20;89.00
21823;DHT22;11074;48.596;9.238;2023-06-14T11:51:32;24.10;90.10
21823;DHT22;11074;48.596;9.238;2023-06-14T11:53:59;24.60;92.10
21823;DHT22;11074;48.596;9.238;2023-06-14T11:56:26;25.20;89.10
21823;DHT22;11074;48.596;9.238;2023-06-14T11:58:52;25.70;91.80
21823;DHT22;11074;48.596;9.238;2023-06-14T12:01:21;26.10;88.60
21823;DHT22;11074;48.596;9.238;2023-06-14T12:03:48;26.30;89.30
21823;DHT22;11074;48.596;9.238;2023-06-14T12:06:15;26.70;90.20
21823;DHT22;11074;48.596;9.238;2023-06-14T12:08:42;26.90;91.70
21823;DHT22;11074;48.596;9.238;2023-06-14T12:11:12;26.70;90.10
21823;DHT22;11074;48.596;9.238;2023-06-14T12:13:39;26.20;89.20
21823;DHT22;11074;48.596;9.238;2023-06-14T12:16:10;25.50;92.80
21823;DHT22;11074;48.596;9.238;2023-06-14T12:18:38;25.10;91.50
21823;DHT22;11074;48.596;9.238;2023-06-14T12:21:09;24.90;94.10
21823;DHT22;11074;48.596;9.238;2023-06-14T12:23:42;25.40;91.80
21823;DHT22;11074;48.596;9.238;2023-06-14T12:26:18;25.80;85.30
21823;DHT22;11074;48.596;9.238;2023-06-14T12:28:47;26.40;91.60
21823;DHT22;11074;48.596;9.238;2023-06-14T12:31:14;26.80;86.90
21823;DHT22;11074;48.596;9.238;2023-06-14T12:33:41;27.10;84.30
21823;DHT22;11074;48.596;9.238;2023-06-14T12:36:09;27.20;83.20
21823;DHT22;11074;48.596;9.238;2023-06-14T12:38:36;27.50;83.80
21823;DHT22;11074;48.596;9.238;2023-06-14T12:41:02;27.70;83.00
21823;DHT22;11074;48.596;9.238;2023-06-14T12:43:28;27.90;84.40
21823;DHT22;11074;48.596;9.238;2023-06-14T12:45:54;28.20;84.00
21823;DHT22;11074;48.596;9.238;2023-06-14T12:48:20;28.40;83.80
21823;DHT22;11074;48.596;9.238;2023-06-14T12:50:47;28.50;84.00
21823;DHT22;11074;48.596;9.238;2023-06-14T12:53:13;28.10;82.00
21823;DHT22;11074;48.596;9.238;2023-06-14T12:55:39;27.40;82.20
21823;DHT22;11074;48.596;9.238;2023-06-14T12:58:05;26.90;83.50
21823;DHT22;11074;48.596;9.238;2023-06-14T13:00:31;26.80;83.80
21823;DHT22;11074;48.596;9.238;2023-06-14T13:02:58;27.30;84.70
21823;DHT22;11074;48.596;9.238;2023-06-14T13:05:23;27.70;82.20
21823;DHT22;11074;48.596;9.238;2023-06-14T13:07:49;27.90;82.00
21823;DHT22;11074;48.596;9.238;2023-06-14T13:10:16;28.20;81.60
21823;DHT22;11074;48.596;9.238;2023-06-14T13:12:42;28.20;81.10
21823;DHT22;11074;48.596;9.238;2023-06-14T13:15:08;28.30;81.60
21823;DHT22;11074;48.596;9.238;2023-06-14T13:17:35;28.10;79.30
21823;DHT22;11074;48.596;9.238;2023-06-14T13:20:07;27.80;79.80
21823;DHT22;11074;48.596;9.238;2023-06-14T13:22:34;27.70;80.30
21823;DHT22;11074;48.596;9.238;2023-06-14T13:25:00;27.80;81.00
21823;DHT22;11074;48.596;9.238;2023-06-14T13:27:27;28.00;80.60
21823;DHT22;11074;48.596;9.238;2023-06-14T13:29:53;28.30;80.60
21823;DHT22;11074;48.596;9.238;2023-06-14T13:32:21;28.70;80.30
21823;DHT22;11074;48.596;9.238;2023-06-14T13:34:47;28.80;80.80
21823;DHT22;11074;48.596;9.238;2023-06-14T13:37:13;28.80;80.10
21823;DHT22;11074;48.596;9.238;2023-06-14T13:39:39;28.80;79.90
21823;DHT22;11074;48.596;9.238;2023-06-14T13:42:05;28.80;80.10
21823;DHT22;11074;48.596;9.238;2023-06-14T13:44:31;29.00;79.20
21823;DHT22;11074;48.596;9.238;2023-06-14T13:46:56;29.10;77.90
21823;DHT22;11074;48.596;9.238;2023-06-14T13:49:22;29.20;79.00
21823;DHT22;11074;48.596;9.238;2023-06-14T13:51:48;29.20;78.80
21823;DHT22;11074;48.596;9.238;2023-06-14T13:54:14;29.20;77.70
21823;DHT22;11074;48.596;9.238;2023-06-14T13:56:42;29.40;78.00
21823;DHT22;11074;48.596;9.238;2023-06-14T13:59:07;29.50;77.20
21823;DHT22;11074;48.596;9.238;2023-06-14T14:01:34;29.60;77.20
21823;DHT22;11074;48.596;9.238;2023-06-14T14:04:00;29.60;78.00
21823;DHT22;11074;48.596;9.238;2023-06-14T14:06:26;29.50;75.50
21823;DHT22;11074;48.596;9.238;2023-06-14T14:08:52;29.40;77.40
21823;DHT22;11074;48.596;9.238;2023-06-14T14:11:19;29.50;77.80
21823;DHT22;11074;48.596;9.238;2023-06-14T14:13:46;29.60;75.40
21823;DHT22;11074;48.596;9.238;2023-06-14T14:16:13;29.50;75.60
21823;DHT22;11074;48.596;9.238;2023-06-14T14:18:39;29.30;75.90
21823;DHT22;11074;48.596;9.238;2023-06-14T14:21:05;29.20;77.60
21823;DHT22;11074;48.596;9.238;2023-06-14T14:23:31;29.20;77.40
21823;DHT22;11074;48.596;9.238;2023-06-14T14:25:57;28.70;78.70
21823;DHT22;11074;48.596;9.238;2023-06-14T14:28:22;28.00;77.10
21823;DHT22;11074;48.596;9.238;2023-06-14T14:30:48;27.50;78.50
21823;DHT22;11074;48.596;9.238;2023-06-14T14:33:14;27.20;80.80
21823;DHT22;11074;48.596;9.238;2023-06-14T14:35:44;27.10;79.70
21823;DHT22;11074;48.596;9.238;2023-06-14T14:38:16;27.50;80.60
21823;DHT22;11074;48.596;9.238;2023-06-14T14:40:42;27.70;79.00
21823;DHT22;11074;48.596;9.238;2023-06-14T14:43:09;27.80;78.00
21823;DHT22;11074;48.596;9.238;2023-06-14T14:45:36;28.00;77.70
21823;DHT22;11074;48.596;9.238;2023-06-14T14:48:02;27.80;77.70
21823;DHT22;11074;48.596;9.238;2023-06-14T14:50:28;27.70;78.80
21823;DHT22;11074;48.596;9.238;2023-06-14T14:52:54;28.00;79.20
21823;DHT22;11074;48.596;9.238;2023-06-14T14:55:20;28.10;77.50
21823;DHT22;11074;48.596;9.238;2023-06-14T14:57:46;28.00;78.20
21823;DHT22;11074;48.596;9.238;2023-06-14T15:00:15;28.00;77.60
21823;DHT22;11074;48.596;9.238;2023-06-14T15:02:41;28.20;78.00
21823;DHT22;11074;48.596;9.238;2023-06-14T15:05:07;28.10;77.60
21823;DHT22;11074;48.596;9.238;2023-06-14T15:07:33;27.90;78.50
21823;DHT22;11074;48.596;9.238;2023-06-14T15:09:59;27.90;78.10
21823;DHT22;11074;48.596;9.238;2023-06-14T15:12:25;28.00;78.40
21823;DHT22;11074;48.596;9.238;2023-06-14T15:14:52;28.30;80.00
21823;DHT22;11074;48.596;9.238;2023-06-14T15:17:19;28.50;80.50
21823;DHT22;11074;48.596;9.238;2023-06-14T15:19:46;28.60;79.50
21823;DHT22;11074;48.596;9.238;2023-06-14T15:22:13;28.60;79.00
21823;DHT22;11074;48.596;9.238;2023-06-14T15:24:42;28.80;78.60
21823;DHT22;11074;48.596;9.238;2023-06-14T15:27:09;28.70;79.20
21823;DHT22;11074;48.596;9.238;2023-06-14T15:29:36;28.50;80.40
21823;DHT22;11074;48.596;9.238;2023-06-14T15:32:02;28.10;80.20
21823;DHT22;11074;48.596;9.238;2023-06-14T15:34:27;27.90;80.00
21823;DHT22;11074;48.596;9.238;2023-06-14T15:36:53;28.00;80.90
21823;DHT22;11074;48.596;9.238;2023-06-14T15:39:19;28.20;79.50
21823;DHT22;11074;48.596;9.238;2023-06-14T15:41:45;28.40;80.60
21823;DHT22;11074;48.596;9.238;2023-06-14T15:44:11;28.50;80.10